Time;durP1;ratioP1;P1;durP2;ratioP2;P2;SDS_P1;SDS_P2;PMS_P1;PMS_P2;Temp;Humidity;BMP_temperature;BMP_pressure;BME280_temperature;BME280_humidity;BME280_pressure;Samples;Min_cycle;Max_cycle;Signal;HPM_P1;HPM_P2
2022/07/02 00:04:18;;;;;;;6.70;4.88;;;19.60;99.90;;;;;;10346150;28;20284;-78
2022/07/02 00:09:40;;;;;;;7.82;5.20;;;19.60;99.90;;;;;;10361074;28;20261;-80
2022/07/02 00:15:03;;;;;;;7.28;5.40;;;19.60;99.90;;;;;;10360695;28;20202;-80
2022/07/02 00:20:25;;;;;;;6.68;5.43;;;19.60;99.90;;;;;;10359535;28;20252;-80
2022/07/02 00:26:03;;;;;;;6.03;4.90;;;19.50;99.90;;;;;;10360910;28;20221;-80
2022/07/02 00:31:25;;;;;;;8.82;5.25;;;19.50;99.90;;;;;;10359382;28;20438;-77
2022/07/02 00:36:48;;;;;;;5.80;4.80;;;19.60;99.90;;;;;;10359180;28;20216;-78
2022/07/02 00:42:11;;;;;;;7.15;4.57;;;19.60;99.90;;;;;;10358844;28;20205;-79
2022/07/02 00:47:33;;;;;;;9.95;5.78;;;19.70;99.90;;;;;;10359319;28;20307;-79
2022/07/02 00:52:54;;;;;;;8.95;5.53;;;19.70;99.90;;;;;;10358310;28;20362;-79
2022/07/02 00:58:16;;;;;;;6.70;5.00;;;19.70;99.90;;;;;;10372411;28;20206;-77
2022/07/02 01:03:38;;;;;;;5.30;4.60;;;19.70;99.90;;;;;;10359130;28;20225;-79
2022/07/02 01:14:41;;;;;;;7.47;5.18;;;19.70;99.90;;;;;;10358505;28;20194;-80
2022/07/02 01:20:04;;;;;;;5.57;4.75;;;19.70;99.90;;;;;;10357486;28;20206;-80
2022/07/02 01:25:25;;;;;;;6.05;5.00;;;19.80;99.90;;;;;;10343370;28;20234;-80
2022/07/02 01:30:47;;;;;;;5.30;4.80;;;19.80;99.90;;;;;;10356830;28;20414;-79
2022/07/02 01:36:09;;;;;;;6.65;5.18;;;19.80;99.90;;;;;;10357686;28;20252;-78
2022/07/02 01:41:39;;;;;;;7.82;5.32;;;19.80;99.90;;;;;;10357509;28;20193;-75
2022/07/02 01:47:06;;;;;;;7.10;5.85;;;19.80;99.90;;;;;;10357315;28;20430;-80
2022/07/02 01:52:27;;;;;;;6.25;5.25;;;19.80;99.90;;;;;;10357453;28;20269;-79
2022/07/02 01:57:49;;;;;;;6.07;5.05;;;19.80;99.90;;;;;;10372087;28;20394;-80
2022/07/02 02:03:11;;;;;;;7.30;5.28;;;19.80;99.90;;;;;;10356804;28;20237;-77
2022/07/02 02:08:32;;;;;;;7.45;5.00;;;19.80;99.90;;;;;;10355390;28;20225;-79
2022/07/02 02:13:54;;;;;;;3.15;2.05;;;19.80;99.90;;;;;;10356114;28;20484;-75
2022/07/02 02:19:15;;;;;;;1.92;1.05;;;19.50;99.10;;;;;;10356171;28;20194;-77
2022/07/02 02:24:37;;;;;;;0.82;0.82;;;19.30;99.90;;;;;;10356231;28;20225;-79
2022/07/02 02:29:58;;;;;;;1.05;0.50;;;19.10;99.90;;;;;;10354843;28;20383;-77
2022/07/02 02:35:20;;;;;;;0.65;0.60;;;18.80;99.90;;;;;;10370859;28;20210;-77
2022/07/02 02:40:41;;;;;;;0.40;0.40;;;18.70;99.90;;;;;;10340312;28;20210;-80
2022/07/02 02:46:05;;;;;;;0.52;0.30;;;18.50;99.90;;;;;;10368552;28;20312;-76
2022/07/02 02:51:28;;;;;;;0.32;0.32;;;18.50;99.90;;;;;;10356373;28;20417;-77
2022/07/02 02:56:49;;;;;;;0.47;0.30;;;18.40;99.90;;;;;;10355883;28;20272;-77
2022/07/02 03:02:11;;;;;;;0.70;0.30;;;18.30;99.90;;;;;;10361868;28;20198;-80
2022/07/02 03:07:33;;;;;;;0.68;0.30;;;18.20;99.90;;;;;;10354387;28;20232;-77
2022/07/02 03:12:54;;;;;;;2.40;0.40;;;18.10;99.90;;;;;;10355324;28;20480;-76
2022/07/02 03:18:16;;;;;;;1.15;0.68;;;18.10;99.90;;;;;;10366870;28;20201;-75
2022/07/02 03:23:37;;;;;;;1.85;0.68;;;18.00;99.90;;;;;;10361732;28;20205;-76
2022/07/02 03:28:59;;;;;;;2.38;0.90;;;17.90;91.50;;;;;;10361743;28;20209;-77
2022/07/02 03:34:20;;;;;;;5.53;0.95;;;17.70;47.20;;;;;;10361855;28;20206;-78
2022/07/02 03:39:41;;;;;;;6.32;0.77;;;17.40;31.20;;;;;;10362274;28;20235;-76
2022/07/02 03:45:04;;;;;;;1.13;0.90;;;17.20;30.20;;;;;;10362187;28;20324;-80
2022/07/02 03:50:25;;;;;;;3.58;1.23;;;17.10;27.20;;;;;;10362160;28;20205;-79
2022/07/02 03:55:46;;;;;;;6.05;1.23;;;17.00;25.90;;;;;;10369358;28;20231;-79
2022/07/02 04:01:08;;;;;;;4.82;0.90;;;16.80;25.80;;;;;;10366507;28;20275;-79
2022/07/02 04:06:29;;;;;;;4.13;1.02;;;16.70;14.50;;;;;;10362185;28;20453;-78
2022/07/02 04:11:50;;;;;;;1.52;0.93;;;16.80;12.10;;;;;;10361290;28;20487;-77
2022/07/02 04:17:12;;;;;;;4.78;1.10;;;16.80;15.40;;;;;;10360991;28;20243;-79
2022/07/02 04:22:34;;;;;;;6.35;1.20;;;16.70;25.90;;;;;;10360687;28;20200;-78
2022/07/02 04:27:56;;;;;;;4.90;1.17;;;16.70;16.00;;;;;;10360717;28;20325;-79
2022/07/02 04:33:17;;;;;;;1.50;0.95;;;16.70;5.70;;;;;;10360554;28;20375;-77
2022/07/02 04:38:38;;;;;;;3.63;1.23;;;16.70;41.80;;;;;;10359806;28;20217;-79
2022/07/02 04:44:00;;;;;;;3.03;1.42;;;16.70;6.50;;;;;;10359604;28;20285;-78
2022/07/02 04:49:21;;;;;;;3.22;1.08;;;16.80;1.00;;;;;;10359982;28;20380;-79
2022/07/02 04:54:47;;;;;;;4.82;1.10;;;16.60;1.00;;;;;;10359841;28;20226;-79
2022/07/02 05:00:10;;;;;;;4.35;1.13;;;16.60;2.10;;;;;;10359154;28;20507;-79
2022/07/02 05:05:31;;;;;;;2.17;1.10;;;16.50;13.70;;;;;;10358732;28;20477;-79
2022/07/02 05:10:53;;;;;;;3.20;1.35;;;16.60;18.80;;;;;;10358883;28;20270;-76
2022/07/02 05:16:16;;;;;;;1.10;0.70;;;16.50;58.80;;;;;;10371821;28;20554;-79
2022/07/02 05:21:40;;;;;;;3.63;1.02;;;16.40;83.60;;;;;;10360029;28;20196;-75
2022/07/02 05:27:01;;;;;;;1.55;0.95;;;16.40;92.00;;;;;;10359756;28;20223;-78
2022/07/02 05:32:22;;;;;;;4.05;1.13;;;16.40;72.00;;;;;;10358177;28;20260;-80
2022/07/02 05:37:44;;;;;;;4.40;1.05;;;16.50;51.90;;;;;;10357621;28;20555;-79
2022/07/02 05:43:05;;;;;;;2.10;1.20;;;16.50;76.80;;;;;;10355937;28;20201;-78
2022/07/02 05:48:27;;;;;;;2.65;0.82;;;16.50;64.80;;;;;;10357426;28;20428;-80
2022/07/02 05:53:48;;;;;;;2.63;1.30;;;16.50;54.90;;;;;;10356577;28;20235;-79
2022/07/02 05:59:09;;;;;;;1.65;1.20;;;16.60;1.00;;;;;;10371780;28;20238;-76
2022/07/02 06:04:32;;;;;;;0.95;0.80;;;16.70;14.20;;;;;;10357576;28;20264;-78
2022/07/02 06:09:53;;;;;;;2.20;1.20;;;16.80;26.90;;;;;;10356047;28;20204;-78
2022/07/02 06:15:16;;;;;;;4.13;2.53;;;16.80;1.70;;;;;;10355233;28;20203;-77
2022/07/02 06:20:38;;;;;;;2.65;1.85;;;16.80;2.80;;;;;;10356191;28;20201;-78
2022/07/02 06:25:59;;;;;;;5.65;1.80;;;16.80;1.00;;;;;;10356447;28;20221;-78
2022/07/02 06:31:20;;;;;;;3.22;1.55;;;16.80;1.00;;;;;;10356026;28;20200;-79
2022/07/02 06:36:42;;;;;;;2.70;0.70;;;16.90;1.00;;;;;;10355616;28;20277;-80
2022/07/02 06:42:19;;;;;;;3.60;1.02;;;16.90;1.00;;;;;;10355678;28;20192;-79
2022/07/02 06:47:43;;;;;;;5.50;1.88;;;16.90;1.00;;;;;;10355154;28;20289;-79
2022/07/02 06:53:04;;;;;;;12.40;5.10;;;16.80;1.00;;;;;;10355598;28;20200;-78
2022/07/02 06:58:26;;;;;;;4.70;2.65;;;16.80;1.00;;;;;;10370930;28;20390;-75
2022/07/02 07:09:09;;;;;;;3.30;1.67;;;16.90;1.00;;;;;;10356539;28;20208;-79
2022/07/02 07:14:34;;;;;;;1.42;1.17;;;17.10;1.00;;;;;;10355237;28;20238;-76
2022/07/02 07:19:56;;;;;;;2.28;1.10;;;17.20;1.00;;;;;;10357310;28;20201;-78
2022/07/02 07:25:17;;;;;;;2.83;1.27;;;17.40;1.00;;;;;;10361235;28;20236;-79
2022/07/02 07:30:38;;;;;;;4.43;1.55;;;17.60;1.00;;;;;;10354875;28;20265;-76
2022/07/02 07:36:00;;;;;;;2.55;1.33;;;18.00;1.00;;;;;;10354397;28;20232;-79
2022/07/02 07:41:41;;;;;;;2.75;1.42;;;18.10;31.10;;;;;;10354599;28;20205;-80
2022/07/02 07:47:21;;;;;;;3.92;1.40;;;18.10;11.90;;;;;;10354197;28;20428;-77
2022/07/02 07:53:01;;;;;;;5.70;1.88;;;18.10;6.70;;;;;;10354699;28;20206;-79
2022/07/02 07:58:41;;;;;;;5.35;2.40;;;18.10;13.50;;;;;;10370639;28;20276;-79
2022/07/02 08:04:21;;;;;;;5.18;1.30;;;18.50;1.00;;;;;;10353878;28;20257;-77
2022/07/02 08:10:01;;;;;;;3.85;1.45;;;19.30;15.80;;;;;;10360998;28;20206;-79
2022/07/02 08:15:41;;;;;;;4.72;1.13;;;19.90;51.50;;;;;;10360978;28;20194;-77
2022/07/02 08:21:21;;;;;;;4.47;1.52;;;20.90;1.00;;;;;;10360877;28;20206;-78
2022/07/02 08:27:02;;;;;;;3.67;1.30;;;21.50;1.00;;;;;;10360608;28;20218;-78
2022/07/02 08:32:42;;;;;;;2.88;1.30;;;22.30;1.00;;;;;;10360214;28;20202;-79
2022/07/02 08:38:24;;;;;;;9.52;1.50;;;22.40;99.90;;;;;;10360109;28;20268;-76
2022/07/02 08:44:07;;;;;;;6.85;1.52;;;22.90;1.00;;;;;;10359553;28;20300;-78
2022/07/02 08:49:48;;;;;;;4.70;1.15;;;22.70;99.90;;;;;;10360084;28;20225;-79
2022/07/02 08:55:10;;;;;;;1.88;0.90;;;22.80;99.90;;;;;;10362086;28;20201;-76
2022/07/02 09:00:32;;;;;;;3.25;1.20;;;23.80;1.00;;;;;;10370189;28;20240;-76
2022/07/02 09:05:55;;;;;;;4.07;1.65;;;24.30;1.00;;;;;;10343922;28;20225;-79
2022/07/02 09:11:16;;;;;;;4.57;1.65;;;24.70;1.00;;;;;;10358965;28;20214;-76
2022/07/02 09:16:38;;;;;;;1.90;1.17;;;23.90;1.00;;;;;;10358497;28;20272;-78
2022/07/02 09:21:59;;;;;;;2.88;1.13;;;24.10;1.00;;;;;;10358147;28;20344;-78
2022/07/02 09:27:21;;;;;;;2.92;1.00;;;23.50;99.90;;;;;;10357840;28;20232;-79
2022/07/02 09:32:45;;;;;;;7.35;0.85;;;23.00;1.00;;;;;;10356887;28;20232;-76
2022/07/02 09:38:10;;;;;;;4.50;1.00;;;23.70;1.00;;;;;;10357686;28;20391;-78
2022/07/02 09:43:33;;;;;;;2.03;1.00;;;24.60;1.00;;;;;;10355994;28;20228;-77
2022/07/02 09:49:08;;;;;;;4.47;1.02;;;24.20;1.00;;;;;;10370074;28;20468;-77
2022/07/02 09:54:30;;;;;;;3.63;1.15;;;24.50;1.00;;;;;;10356797;28;20460;-76
2022/07/02 09:59:51;;;;;;;2.45;1.02;;;24.00;1.00;;;;;;10340015;28;20206;-77
2022/07/02 10:05:13;;;;;;;7.50;0.85;;;24.50;1.00;;;;;;10356537;28;20224;-78
2022/07/02 10:10:39;;;;;;;4.03;1.50;;;24.60;1.00;;;;;;10356396;28;20193;-79
2022/07/02 10:16:03;;;;;;;2.38;1.20;;;25.30;1.00;;;;;;10355457;28;20220;-79
2022/07/02 10:21:27;;;;;;;4.28;0.85;;;25.70;1.00;;;;;;10354841;28;20252;-77
2022/07/02 10:26:49;;;;;;;4.85;1.45;;;25.90;1.00;;;;;;10354397;28;20225;-77
2022/07/02 10:32:28;;;;;;;4.80;1.42;;;25.20;1.00;;;;;;10354382;28;20209;-76
2022/07/02 10:37:56;;;;;;;3.97;1.30;;;24.30;1.00;;;;;;10354707;28;20450;-77
2022/07/02 10:43:19;;;;;;;2.65;1.10;;;23.60;1.00;;;;;;10353876;28;20396;-78
2022/07/02 10:48:52;;;;;;;2.63;1.00;;;24.60;1.00;;;;;;10354867;28;20229;-79
2022/07/02 10:54:14;;;;;;;4.00;1.20;;;25.50;1.00;;;;;;10353669;28;20260;-78
2022/07/02 10:59:36;;;;;;;2.40;1.40;;;26.20;1.00;;;;;;10370315;28;20371;-78
2022/07/02 11:05:07;;;;;;;1.70;0.90;;;26.50;1.00;;;;;;10353365;28;20248;-80
2022/07/02 11:10:29;;;;;;;4.65;1.27;;;26.80;1.00;;;;;;10354995;28;20240;-77
2022/07/02 11:15:50;;;;;;;3.60;1.08;;;27.10;1.00;;;;;;10355207;28;20189;-77
2022/07/02 11:21:15;;;;;;;10.98;8.30;;;27.10;99.90;;;;;;10364595;28;20194;-77
2022/07/02 11:26:42;;;;;;;3.55;1.20;;;27.50;1.00;;;;;;10355162;28;20225;-76
2022/07/02 11:32:04;;;;;;;4.75;1.10;;;27.70;1.00;;;;;;10353546;28;20432;-78
2022/07/02 11:37:25;;;;;;;1.17;0.80;;;28.00;1.00;;;;;;10353839;28;20220;-77
2022/07/02 11:42:47;;;;;;;0.98;0.82;;;27.70;99.90;;;;;;10359086;28;20204;-76
2022/07/02 11:48:21;;;;;;;3.70;0.77;;;27.20;99.90;;;;;;10361800;28;20241;-78
2022/07/02 11:53:43;;;;;;;3.58;0.80;;;26.40;1.00;;;;;;10361677;28;20556;-80
2022/07/02 11:59:06;;;;;;;2.67;1.02;;;26.70;99.90;;;;;;10378187;28;20209;-80
2022/07/02 12:04:28;;;;;;;2.70;1.17;;;27.40;99.90;;;;;;10360723;28;20196;-77
2022/07/02 12:09:49;;;;;;;4.72;1.25;;;27.30;99.90;;;;;;10361162;28;20201;-77
2022/07/02 12:15:11;;;;;;;1.45;0.80;;;27.60;99.90;;;;;;10361034;28;20506;-77
2022/07/02 12:20:33;;;;;;;2.83;0.70;;;27.60;99.90;;;;;;10360499;28;20200;-79
2022/07/02 12:25:55;;;;;;;2.72;1.55;;;27.40;99.90;;;;;;10360555;28;20226;-77
2022/07/02 12:31:16;;;;;;;2.72;1.27;;;27.50;99.90;;;;;;10345427;28;20201;-78
2022/07/02 12:37:04;;;;;;;3.20;1.15;;;27.60;99.90;;;;;;10358631;28;20252;-78
2022/07/02 12:42:27;;;;;;;2.17;0.60;;;27.30;99.90;;;;;;10360054;28;20381;-80
2022/07/02 12:48:03;;;;;;;4.50;0.88;;;27.50;99.90;;;;;;10359615;28;20469;-80
2022/07/02 12:53:25;;;;;;;2.28;0.90;;;27.60;99.90;;;;;;10344572;28;20205;-77
2022/07/02 12:58:47;;;;;;;1.00;0.70;;;27.50;99.90;;;;;;10375012;28;20216;-80
2022/07/02 13:04:08;;;;;;;3.60;0.77;;;27.50;99.90;;;;;;10358931;28;20485;-77
2022/07/02 13:09:29;;;;;;;3.58;0.60;;;27.40;99.90;;;;;;10358964;28;20229;-78
2022/07/02 13:14:51;;;;;;;1.85;0.70;;;27.30;99.90;;;;;;10358091;28;20208;-80
2022/07/02 13:20:12;;;;;;;5.45;0.90;;;26.90;99.90;;;;;;10357652;28;20209;-77
2022/07/02 13:25:34;;;;;;;1.85;0.45;;;27.00;1.00;;;;;;10359746;28;20238;-78
2022/07/02 13:30:56;;;;;;;0.88;0.57;;;26.90;99.90;;;;;;10358295;28;20209;-77
2022/07/02 13:36:18;;;;;;;3.25;1.05;;;27.00;99.90;;;;;;10357085;28;20210;-80
2022/07/02 13:41:39;;;;;;;0.95;0.70;;;27.20;99.90;;;;;;10358120;28;20194;-80
2022/07/02 13:47:01;;;;;;;2.38;0.90;;;27.30;99.90;;;;;;10357963;28;20292;-81
2022/07/02 13:52:23;;;;;;;3.22;0.80;;;26.90;99.90;;;;;;10358073;28;20268;-81
2022/07/02 13:57:44;;;;;;;2.05;0.70;;;26.70;99.90;;;;;;10373896;28;20213;-80
2022/07/02 14:03:06;;;;;;;1.58;0.63;;;26.80;99.90;;;;;;10355876;28;20196;-78
2022/07/02 14:08:27;;;;;;;2.00;0.90;;;27.00;99.90;;;;;;10356821;28;20566;-80
2022/07/02 14:13:50;;;;;;;1.38;0.80;;;26.90;1.00;;;;;;10369782;28;20192;-80
2022/07/02 14:19:11;;;;;;;1.02;0.70;;;26.90;99.90;;;;;;10356189;28;20205;-80
2022/07/02 14:24:33;;;;;;;1.30;0.80;;;26.80;99.90;;;;;;10356227;28;20229;-78
2022/07/02 14:29:55;;;;;;;1.20;0.82;;;26.00;1.00;;;;;;10371227;28;20463;-80
2022/07/02 14:35:16;;;;;;;2.70;0.80;;;25.80;99.90;;;;;;10355424;28;20198;-78
2022/07/02 14:40:39;;;;;;;2.15;1.13;;;25.80;99.90;;;;;;10355716;28;20264;-80
2022/07/02 14:46:00;;;;;;;2.00;0.90;;;25.80;99.90;;;;;;10355091;28;20241;-78
2022/07/02 14:51:23;;;;;;;2.80;0.80;;;25.70;99.90;;;;;;10355336;28;20197;-81
2022/07/02 14:56:45;;;;;;;2.30;0.90;;;25.60;99.90;;;;;;10370705;28;20308;-81
2022/07/02 15:02:07;;;;;;;2.40;1.15;;;25.30;1.00;;;;;;10313755;28;20217;-80
2022/07/02 15:07:29;;;;;;;6.05;0.93;;;25.40;99.90;;;;;;10314622;28;20232;-79
2022/07/02 15:12:51;;;;;;;1.92;0.73;;;25.30;99.90;;;;;;10316148;28;20471;-76
2022/07/02 15:18:14;;;;;;;2.50;1.00;;;25.20;99.90;;;;;;10320819;28;20228;-77
2022/07/02 15:23:36;;;;;;;2.15;0.52;;;25.20;99.90;;;;;;10322801;28;20190;-79
2022/07/02 15:28:57;;;;;;;1.40;0.75;;;25.00;99.90;;;;;;10322344;28;20218;-78
2022/07/02 15:34:21;;;;;;;2.83;1.70;;;24.80;99.90;;;;;;10324484;28;20221;-78
2022/07/02 15:39:46;;;;;;;1.35;0.68;;;24.80;99.90;;;;;;10361607;28;20206;-81
2022/07/02 15:45:08;;;;;;;0.60;0.45;;;24.60;99.90;;;;;;10374786;28;20471;-77
2022/07/02 15:50:34;;;;;;;1.75;0.80;;;24.40;99.90;;;;;;10362154;28;20201;-77
2022/07/02 15:56:01;;;;;;;3.53;0.82;;;24.30;99.90;;;;;;10369710;28;20224;-80
2022/07/02 16:01:25;;;;;;;3.67;0.82;;;24.20;99.90;;;;;;10365598;28;20206;-78
2022/07/02 16:06:48;;;;;;;2.40;0.70;;;24.10;99.90;;;;;;10361358;28;20289;-80
2022/07/02 16:12:11;;;;;;;0.85;0.50;;;23.90;99.90;;;;;;10361141;28;20197;-80
2022/07/02 16:17:34;;;;;;;2.17;0.88;;;23.90;99.90;;;;;;10361050;28;20249;-81
2022/07/02 16:22:56;;;;;;;1.30;0.60;;;23.90;99.90;;;;;;10359737;28;20543;-77
2022/07/02 16:28:18;;;;;;;0.65;0.60;;;23.80;99.90;;;;;;10359926;28;20445;-80
2022/07/02 16:33:46;;;;;;;1.15;0.63;;;23.80;99.90;;;;;;10345656;28;20225;-79
2022/07/02 16:39:08;;;;;;;1.05;0.70;;;23.80;99.90;;;;;;10360236;28;20237;-76
2022/07/02 16:44:32;;;;;;;1.45;0.85;;;23.60;99.90;;;;;;10359794;28;20222;-76
2022/07/02 16:50:01;;;;;;;0.73;0.50;;;23.50;99.90;;;;;;10359846;28;20544;-79
2022/07/02 16:55:24;;;;;;;2.78;0.60;;;23.60;99.90;;;;;;10328488;28;20224;-80
2022/07/02 17:00:46;;;;;;;1.17;0.70;;;23.50;99.90;;;;;;10354010;28;20228;-79
2022/07/02 17:06:07;;;;;;;1.17;0.90;;;23.50;99.90;;;;;;10359329;28;20224;-80
2022/07/02 17:11:29;;;;;;;0.70;0.60;;;23.50;99.90;;;;;;10357937;28;20257;-78
2022/07/02 17:16:50;;;;;;;2.10;0.73;;;23.30;99.90;;;;;;10358889;28;20201;-80
2022/07/02 17:22:12;;;;;;;1.73;0.90;;;23.20;99.90;;;;;;10358650;28;20202;-80
2022/07/02 17:27:34;;;;;;;1.55;0.70;;;23.20;99.90;;;;;;10358088;28;20287;-79
2022/07/02 17:32:55;;;;;;;1.85;1.20;;;23.10;99.90;;;;;;10361294;28;20504;-79
2022/07/02 17:38:18;;;;;;;1.02;0.90;;;23.20;97.40;;;;;;10357511;28;20198;-79
2022/07/02 17:43:39;;;;;;;1.42;1.10;;;23.10;96.10;;;;;;10358287;28;20261;-79
2022/07/02 17:49:01;;;;;;;2.88;1.20;;;22.90;99.90;;;;;;10380991;28;20550;-79
2022/07/02 17:54:22;;;;;;;2.50;1.00;;;22.80;99.90;;;;;;10357122;28;20221;-77
2022/07/02 17:59:45;;;;;;;2.80;1.20;;;22.60;99.30;;;;;;10372693;28;20209;-79
2022/07/02 18:05:07;;;;;;;2.53;1.30;;;22.50;99.90;;;;;;10357072;28;20221;-79
2022/07/02 18:10:32;;;;;;;4.22;1.40;;;22.40;99.90;;;;;;10356545;28;20221;-77
2022/07/02 18:15:54;;;;;;;3.17;1.55;;;22.40;99.90;;;;;;10355475;28;20389;-79
2022/07/02 18:21:15;;;;;;;3.00;1.67;;;22.30;99.90;;;;;;10356396;28;20190;-80
2022/07/02 18:26:37;;;;;;;4.65;2.00;;;22.00;99.90;;;;;;10355951;28;20225;-78
2022/07/02 18:31:58;;;;;;;3.92;2.22;;;21.90;99.90;;;;;;10355321;28;20190;-79
2022/07/02 18:37:22;;;;;;;3.15;1.60;;;21.90;99.90;;;;;;10355336;28;20220;-77
2022/07/02 18:42:43;;;;;;;2.20;1.70;;;21.80;99.90;;;;;;10355809;28;20213;-77
2022/07/02 18:48:05;;;;;;;2.58;1.70;;;21.70;99.90;;;;;;10355346;28;20483;-77
2022/07/02 18:53:26;;;;;;;4.30;2.65;;;21.60;99.90;;;;;;10355081;28;20190;-80
2022/07/02 18:58:48;;;;;;;4.82;2.47;;;21.50;99.90;;;;;;10371725;28;20212;-77
2022/07/02 19:04:10;;;;;;;4.85;2.83;;;21.40;99.90;;;;;;10370419;28;20200;-77
2022/07/02 19:09:32;;;;;;;4.80;2.40;;;21.40;99.90;;;;;;10354871;28;20289;-76
2022/07/02 19:14:53;;;;;;;3.47;2.75;;;21.30;99.90;;;;;;10353603;28;20437;-79
2022/07/02 19:20:15;;;;;;;9.80;4.35;;;21.20;99.90;;;;;;10356116;28;20202;-79
2022/07/02 19:25:38;;;;;;;8.30;5.10;;;21.10;99.90;;;;;;10354967;28;20189;-78
2022/07/02 19:31:00;;;;;;;7.18;5.53;;;20.90;99.90;;;;;;10354835;28;20190;-78
2022/07/02 19:36:22;;;;;;;7.68;5.05;;;20.80;99.90;;;;;;10354245;28;20211;-79
2022/07/02 19:41:43;;;;;;;7.28;5.32;;;20.80;99.90;;;;;;10353628;28;20212;-79
2022/07/02 19:47:05;;;;;;;12.02;6.38;;;20.60;99.90;;;;;;10352884;28;20243;-79
2022/07/02 19:52:26;;;;;;;13.73;9.77;;;20.60;99.90;;;;;;10354023;28;20264;-79
2022/07/02 19:57:48;;;;;;;11.60;8.55;;;20.40;99.90;;;;;;10370884;28;20209;-79
2022/07/02 20:03:10;;;;;;;9.90;7.55;;;20.20;99.90;;;;;;10358903;28;20259;-78
2022/07/02 20:08:31;;;;;;;8.77;6.20;;;20.10;99.90;;;;;;10361177;28;20217;-80
2022/07/02 20:13:54;;;;;;;11.13;6.65;;;20.00;99.90;;;;;;10361231;28;20218;-79
2022/07/02 20:19:15;;;;;;;13.02;8.43;;;19.90;99.90;;;;;;10359881;28;20202;-76
2022/07/02 20:24:39;;;;;;;29.33;15.15;;;19.80;99.90;;;;;;10361051;28;20264;-79
2022/07/02 20:30:01;;;;;;;31.33;18.60;;;19.70;99.90;;;;;;10360682;28;20237;-80
2022/07/02 20:35:24;;;;;;;41.55;23.15;;;19.60;1.00;;;;;;10360037;28;20204;-79
2022/07/02 20:40:45;;;;;;;38.25;22.08;;;19.30;1.00;;;;;;10360262;28;20200;-79
2022/07/02 20:46:07;;;;;;;27.45;15.13;;;19.20;1.00;;;;;;10359717;28;20253;-77
2022/07/02 20:51:29;;;;;;;21.30;13.77;;;19.00;1.00;;;;;;10359562;28;20210;-77
2022/07/02 20:56:51;;;;;;;19.65;12.77;;;18.90;99.90;;;;;;10375947;28;20197;-79
2022/07/02 21:02:12;;;;;;;23.60;13.75;;;18.80;1.00;;;;;;10319077;28;20199;-79
2022/07/02 21:07:34;;;;;;;18.50;13.20;;;18.70;99.90;;;;;;10318906;28;20305;-76
2022/07/02 21:12:56;;;;;;;21.50;16.17;;;18.70;99.90;;;;;;10318006;28;20481;-75
2022/07/02 21:18:18;;;;;;;23.83;15.18;;;18.60;99.90;;;;;;10317132;28;20519;-76
2022/07/02 21:23:40;;;;;;;21.88;14.65;;;18.50;99.90;;;;;;10318350;28;20225;-78
2022/07/02 21:29:01;;;;;;;23.30;15.80;;;18.50;99.90;;;;;;10318256;28;20230;-80
2022/07/02 21:34:23;;;;;;;22.65;13.90;;;18.40;1.00;;;;;;10320261;28;20202;-79
2022/07/02 21:39:48;;;;;;;24.73;17.15;;;18.30;1.00;;;;;;10358174;28;20205;-79
2022/07/02 21:45:10;;;;;;;19.08;11.50;;;18.20;1.00;;;;;;10357843;28;20301;-78
2022/07/02 21:50:31;;;;;;;13.20;8.10;;;17.90;1.00;;;;;;10367687;28;20547;-79
2022/07/02 21:55:53;;;;;;;12.25;7.82;;;17.70;1.00;;;;;;10365705;28;20197;-79
2022/07/02 22:01:15;;;;;;;13.68;7.95;;;17.60;1.00;;;;;;10361340;28;20201;-79
2022/07/02 22:06:36;;;;;;;13.23;8.73;;;17.50;99.90;;;;;;10342244;28;20244;-79
2022/07/02 22:11:58;;;;;;;13.10;8.52;;;17.50;1.00;;;;;;10355978;28;20385;-80
2022/07/02 22:17:19;;;;;;;19.20;9.27;;;17.40;1.00;;;;;;10355341;28;20221;-79
2022/07/02 22:22:40;;;;;;;16.60;9.98;;;17.30;29.80;;;;;;10356229;28;20197;-79
2022/07/02 22:28:02;;;;;;;17.77;10.50;;;17.40;99.90;;;;;;10355715;28;20293;-79
2022/07/02 22:33:24;;;;;;;16.40;10.20;;;17.40;39.80;;;;;;10355848;28;20221;-80
2022/07/02 22:38:45;;;;;;;15.93;9.20;;;17.30;1.00;;;;;;10354723;28;20205;-79
2022/07/02 22:44:07;;;;;;;13.93;9.07;;;17.20;99.90;;;;;;10354373;28;20260;-80
2022/07/02 22:49:28;;;;;;;15.30;9.10;;;17.20;99.90;;;;;;10355327;28;20228;-80
2022/07/02 22:54:50;;;;;;;13.38;7.82;;;17.10;99.90;;;;;;10368080;28;20362;-75
2022/07/02 23:00:13;;;;;;;13.20;8.35;;;17.10;99.90;;;;;;10369078;28;20566;-76
2022/07/02 23:05:36;;;;;;;13.77;7.32;;;17.00;99.90;;;;;;10370390;28;20251;-79
2022/07/02 23:10:58;;;;;;;13.13;7.38;;;17.00;99.90;;;;;;10355077;28;20224;-79
2022/07/02 23:16:21;;;;;;;11.27;7.63;;;16.90;99.90;;;;;;10370095;28;20205;-79
2022/07/02 23:21:42;;;;;;;10.80;7.40;;;16.80;99.90;;;;;;10354857;28;20194;-79
2022/07/02 23:27:04;;;;;;;8.15;5.82;;;16.70;99.90;;;;;;10367283;28;20288;-79
2022/07/02 23:32:26;;;;;;;9.18;5.85;;;16.60;99.90;;;;;;10354729;28;20265;-80
2022/07/02 23:37:48;;;;;;;10.10;6.45;;;16.50;99.90;;;;;;10356818;28;20395;-79
2022/07/02 23:43:09;;;;;;;10.50;6.20;;;16.50;99.90;;;;;;10361466;28;20387;-79
2022/07/02 23:48:31;;;;;;;8.02;5.80;;;16.50;99.90;;;;;;10362284;28;20221;-76
2022/07/02 23:53:53;;;;;;;11.02;6.88;;;16.50;99.90;;;;;;10361127;28;20194;-76
2022/07/02 23:59:15;;;;;;;9.35;5.95;;;16.40;99.90;;;;;;10350135;28;20393;-76
